aviador You're here:

USSS Decoded Metar

SVERDLOVSK in RUSSIA
Report Time2017-01-21 21:00:00
UTC Time2017-01-21 21:34:17
Flight Rules vfr VFR
Wind190° at 8 kt
W.Decomp.*RWY 26: 0.8 kt HW 8 kt LCW
W.Rank190° ranks 27
Current wind is above 190° avg. (5.7)
Visibility9999 m
Phenomena:N/A
Clouds:Scattered 019 Hf
Expected CloudBase > 800 ft AGL from Temp-Dew spread
CeilingNone
Temp-13°C (ISA -26)
Dew Point-15°C (85% RH)
AAT-19.3°C
QNH0994 hPa
Density Alt-1,873 ft
Elevation764 ft
Report Wrong Elevation
Raw Report
USSS 212100Z 19004MPS 9999 SCT019 M13/M15 Q0994 R26R/450237 NOSIG
RMK QFE725/0967=

Extra information for USSS:More info

Metar Taf Metar & Taf Last 4 Metars F.Rules Stats Wind Profile Meteogram Temp Stats Airport Information Weather charts Add Link Nearby VenuesMetar ALERT Operation Metar Decoded Social comments